<?xml version='1.0' encoding='UTF-8'?>
<gpx version="1.1" creator="https://www.komoot.de" xmlns="http://www.topografix.com/GPX/1/1" xmlns:xsi="http://www.w3.org/2001/XMLSchema-instance" xsi:schemaLocation="http://www.topografix.com/GPX/1/1 http://www.topografix.com/GPX/1/1/gpx.xsd">
  <metadata>
    <name>Wanderung 07.08.2021 12:00</name>
    <author>
      <link href="https://www.komoot.de">
        <text>komoot</text>
        <type>text/html</type>
      </link>
    </author>
  </metadata>
  <trk>
    <name>Wanderung 07.08.2021 12:00</name>
    <trkseg>
      <trkpt lat="48.802513" lon="11.227588">
        <ele>481.245517</ele>
        <time>2021-08-07T09:43:28.015Z</time>
      </trkpt>
      <trkpt lat="48.802581" lon="11.227732">
        <ele>481.245517</ele>
        <time>2021-08-07T09:43:30.840Z</time>
      </trkpt>
      <trkpt lat="48.802668" lon="11.227788">
        <ele>481.245517</ele>
        <time>2021-08-07T09:43:52.909Z</time>
      </trkpt>
      <trkpt lat="48.802776" lon="11.227849">
        <ele>481.245517</ele>
        <time>2021-08-07T09:43:57.939Z</time>
      </trkpt>
      <trkpt lat="48.802888" lon="11.227861">
        <ele>481.245517</ele>
        <time>2021-08-07T09:44:00.949Z</time>
      </trkpt>
      <trkpt lat="48.803002" lon="11.227856">
        <ele>481.245517</ele>
        <time>2021-08-07T09:44:03.915Z</time>
      </trkpt>
      <trkpt lat="48.803100" lon="11.227871">
        <ele>481.245517</ele>
        <time>2021-08-07T09:44:06.940Z</time>
      </trkpt>
      <trkpt lat="48.803199" lon="11.227870">
        <ele>481.245517</ele>
        <time>2021-08-07T09:44:09.949Z</time>
      </trkpt>
      <trkpt lat="48.803317" lon="11.227882">
        <ele>481.245517</ele>
        <time>2021-08-07T09:44:13.905Z</time>
      </trkpt>
      <trkpt lat="48.803413" lon="11.227894">
        <ele>480.961733</ele>
        <time>2021-08-07T09:44:16.985Z</time>
      </trkpt>
      <trkpt lat="48.803524" lon="11.227891">
        <ele>480.480917</ele>
        <time>2021-08-07T09:44:19.946Z</time>
      </trkpt>
      <trkpt lat="48.803639" lon="11.227874">
        <ele>479.980498</ele>
        <time>2021-08-07T09:44:22.932Z</time>
      </trkpt>
      <trkpt lat="48.803759" lon="11.227887">
        <ele>479.459458</ele>
        <time>2021-08-07T09:44:25.934Z</time>
      </trkpt>
      <trkpt lat="48.803853" lon="11.227886">
        <ele>479.052334</ele>
        <time>2021-08-07T09:44:28.927Z</time>
      </trkpt>
      <trkpt lat="48.803919" lon="11.227790">
        <ele>478.656482</ele>
        <time>2021-08-07T09:44:31.920Z</time>
      </trkpt>
      <trkpt lat="48.803930" lon="11.227604">
        <ele>478.123772</ele>
        <time>2021-08-07T09:44:34.930Z</time>
      </trkpt>
      <trkpt lat="48.803956" lon="11.227415">
        <ele>477.573006</ele>
        <time>2021-08-07T09:44:37.932Z</time>
      </trkpt>
      <trkpt lat="48.803984" lon="11.227239">
        <ele>477.056518</ele>
        <time>2021-08-07T09:44:40.932Z</time>
      </trkpt>
      <trkpt lat="48.804002" lon="11.227063">
        <ele>476.548453</ele>
        <time>2021-08-07T09:44:43.933Z</time>
      </trkpt>
      <trkpt lat="48.804033" lon="11.226887">
        <ele>476.028762</ele>
        <time>2021-08-07T09:44:46.941Z</time>
      </trkpt>
      <trkpt lat="48.804052" lon="11.226711">
        <ele>475.520014</ele>
        <time>2021-08-07T09:44:49.943Z</time>
      </trkpt>
      <trkpt lat="48.804056" lon="11.226535">
        <ele>475.017667</ele>
        <time>2021-08-07T09:44:52.933Z</time>
      </trkpt>
      <trkpt lat="48.804072" lon="11.226359">
        <ele>474.510859</ele>
        <time>2021-08-07T09:44:55.930Z</time>
      </trkpt>
      <trkpt lat="48.804083" lon="11.226178">
        <ele>473.992355</ele>
        <time>2021-08-07T09:44:58.950Z</time>
      </trkpt>
      <trkpt lat="48.804105" lon="11.226000">
        <ele>473.475739</ele>
        <time>2021-08-07T09:45:01.923Z</time>
      </trkpt>
      <trkpt lat="48.804118" lon="11.225829">
        <ele>473.798945</ele>
        <time>2021-08-07T09:45:04.929Z</time>
      </trkpt>
      <trkpt lat="48.804146" lon="11.225657">
        <ele>474.167440</ele>
        <time>2021-08-07T09:45:07.940Z</time>
      </trkpt>
      <trkpt lat="48.804166" lon="11.225494">
        <ele>474.512284</ele>
        <time>2021-08-07T09:45:10.946Z</time>
      </trkpt>
      <trkpt lat="48.804181" lon="11.225325">
        <ele>474.866952</ele>
        <time>2021-08-07T09:45:13.963Z</time>
      </trkpt>
      <trkpt lat="48.804190" lon="11.225155">
        <ele>475.221662</ele>
        <time>2021-08-07T09:45:16.944Z</time>
      </trkpt>
      <trkpt lat="48.804208" lon="11.224967">
        <ele>475.616779</ele>
        <time>2021-08-07T09:45:19.955Z</time>
      </trkpt>
      <trkpt lat="48.804229" lon="11.224772">
        <ele>476.027730</ele>
        <time>2021-08-07T09:45:22.932Z</time>
      </trkpt>
      <trkpt lat="48.804251" lon="11.224573">
        <ele>476.447405</ele>
        <time>2021-08-07T09:45:25.957Z</time>
      </trkpt>
      <trkpt lat="48.804261" lon="11.224395">
        <ele>476.818957</ele>
        <time>2021-08-07T09:45:28.938Z</time>
      </trkpt>
      <trkpt lat="48.804275" lon="11.224250">
        <ele>477.123755</ele>
        <time>2021-08-07T09:45:30.939Z</time>
      </trkpt>
      <trkpt lat="48.804290" lon="11.224114">
        <ele>477.410549</ele>
        <time>2021-08-07T09:45:32.940Z</time>
      </trkpt>
      <trkpt lat="48.804300" lon="11.223931">
        <ele>477.792464</ele>
        <time>2021-08-07T09:45:35.927Z</time>
      </trkpt>
      <trkpt lat="48.804309" lon="11.223793">
        <ele>478.080882</ele>
        <time>2021-08-07T09:45:37.943Z</time>
      </trkpt>
      <trkpt lat="48.804325" lon="11.223606">
        <ele>478.473077</ele>
        <time>2021-08-07T09:45:40.912Z</time>
      </trkpt>
      <trkpt lat="48.804343" lon="11.223469">
        <ele>478.763626</ele>
        <time>2021-08-07T09:45:44.504Z</time>
      </trkpt>
      <trkpt lat="48.804387" lon="11.223276">
        <ele>479.161034</ele>
        <time>2021-08-07T09:45:47.563Z</time>
      </trkpt>
      <trkpt lat="48.804435" lon="11.223116">
        <ele>479.338136</ele>
        <time>2021-08-07T09:45:50.533Z</time>
      </trkpt>
      <trkpt lat="48.804487" lon="11.222944">
        <ele>479.528774</ele>
        <time>2021-08-07T09:45:53.574Z</time>
      </trkpt>
      <trkpt lat="48.804552" lon="11.222848">
        <ele>479.667460</ele>
        <time>2021-08-07T09:45:55.523Z</time>
      </trkpt>
      <trkpt lat="48.804627" lon="11.222704">
        <ele>479.852386</ele>
        <time>2021-08-07T09:45:58.558Z</time>
      </trkpt>
      <trkpt lat="48.804714" lon="11.222577">
        <ele>480.036967</ele>
        <time>2021-08-07T09:46:01.560Z</time>
      </trkpt>
      <trkpt lat="48.804793" lon="11.222444">
        <ele>480.217374</ele>
        <time>2021-08-07T09:46:04.531Z</time>
      </trkpt>
      <trkpt lat="48.804871" lon="11.222306">
        <ele>480.400552</ele>
        <time>2021-08-07T09:46:07.556Z</time>
      </trkpt>
      <trkpt lat="48.804947" lon="11.222178">
        <ele>480.574145</ele>
        <time>2021-08-07T09:46:10.562Z</time>
      </trkpt>
      <trkpt lat="48.805032" lon="11.222036">
        <ele>480.767431</ele>
        <time>2021-08-07T09:46:13.546Z</time>
      </trkpt>
      <trkpt lat="48.805113" lon="11.221907">
        <ele>480.946962</ele>
        <time>2021-08-07T09:46:16.548Z</time>
      </trkpt>
      <trkpt lat="48.805184" lon="11.221774">
        <ele>481.119413</ele>
        <time>2021-08-07T09:46:19.575Z</time>
      </trkpt>
      <trkpt lat="48.805206" lon="11.221599">
        <ele>481.298873</ele>
        <time>2021-08-07T09:46:22.543Z</time>
      </trkpt>
      <trkpt lat="48.805144" lon="11.221416">
        <ele>481.506167</ele>
        <time>2021-08-07T09:46:25.559Z</time>
      </trkpt>
      <trkpt lat="48.805087" lon="11.221285">
        <ele>481.664319</ele>
        <time>2021-08-07T09:46:27.549Z</time>
      </trkpt>
      <trkpt lat="48.805016" lon="11.221161">
        <ele>481.829826</ele>
        <time>2021-08-07T09:46:29.526Z</time>
      </trkpt>
      <trkpt lat="48.804937" lon="11.221037">
        <ele>481.686979</ele>
        <time>2021-08-07T09:46:31.566Z</time>
      </trkpt>
      <trkpt lat="48.804848" lon="11.220905">
        <ele>481.364167</ele>
        <time>2021-08-07T09:46:33.559Z</time>
      </trkpt>
      <trkpt lat="48.804759" lon="11.220771">
        <ele>481.038957</ele>
        <time>2021-08-07T09:46:35.564Z</time>
      </trkpt>
      <trkpt lat="48.804661" lon="11.220631">
        <ele>480.689826</ele>
        <time>2021-08-07T09:46:37.552Z</time>
      </trkpt>
      <trkpt lat="48.804569" lon="11.220487">
        <ele>480.346990</ele>
        <time>2021-08-07T09:46:39.566Z</time>
      </trkpt>
      <trkpt lat="48.804471" lon="11.220345">
        <ele>479.995507</ele>
        <time>2021-08-07T09:46:41.530Z</time>
      </trkpt>
      <trkpt lat="48.804371" lon="11.220189">
        <ele>479.623499</ele>
        <time>2021-08-07T09:46:43.535Z</time>
      </trkpt>
      <trkpt lat="48.804261" lon="11.220029">
        <ele>479.228254</ele>
        <time>2021-08-07T09:46:45.558Z</time>
      </trkpt>
      <trkpt lat="48.804152" lon="11.219856">
        <ele>478.819124</ele>
        <time>2021-08-07T09:46:47.578Z</time>
      </trkpt>
      <trkpt lat="48.804039" lon="11.219690">
        <ele>478.411159</ele>
        <time>2021-08-07T09:46:49.609Z</time>
      </trkpt>
      <trkpt lat="48.803935" lon="11.219515">
        <ele>478.008355</ele>
        <time>2021-08-07T09:46:51.558Z</time>
      </trkpt>
      <trkpt lat="48.803837" lon="11.219331">
        <ele>477.603969</ele>
        <time>2021-08-07T09:46:53.564Z</time>
      </trkpt>
      <trkpt lat="48.803747" lon="11.219142">
        <ele>477.201882</ele>
        <time>2021-08-07T09:46:55.559Z</time>
      </trkpt>
      <trkpt lat="48.803655" lon="11.218958">
        <ele>476.707468</ele>
        <time>2021-08-07T09:46:57.564Z</time>
      </trkpt>
      <trkpt lat="48.803562" lon="11.218772">
        <ele>476.207679</ele>
        <time>2021-08-07T09:46:59.558Z</time>
      </trkpt>
      <trkpt lat="48.803463" lon="11.218592">
        <ele>475.705788</ele>
        <time>2021-08-07T09:47:01.553Z</time>
      </trkpt>
      <trkpt lat="48.803363" lon="11.218420">
        <ele>475.214771</ele>
        <time>2021-08-07T09:47:03.575Z</time>
      </trkpt>
      <trkpt lat="48.803258" lon="11.218306">
        <ele>474.795321</ele>
        <time>2021-08-07T09:47:05.553Z</time>
      </trkpt>
      <trkpt lat="48.803175" lon="11.218186">
        <ele>474.422897</ele>
        <time>2021-08-07T09:47:07.560Z</time>
      </trkpt>
      <trkpt lat="48.803091" lon="11.218036">
        <ele>474.001512</ele>
        <time>2021-08-07T09:47:09.551Z</time>
      </trkpt>
      <trkpt lat="48.803013" lon="11.217868">
        <ele>473.561601</ele>
        <time>2021-08-07T09:47:11.555Z</time>
      </trkpt>
      <trkpt lat="48.802932" lon="11.217701">
        <ele>473.117727</ele>
        <time>2021-08-07T09:47:13.561Z</time>
      </trkpt>
      <trkpt lat="48.802840" lon="11.217549">
        <ele>472.675913</ele>
        <time>2021-08-07T09:47:15.554Z</time>
      </trkpt>
      <trkpt lat="48.802742" lon="11.217407">
        <ele>472.235720</ele>
        <time>2021-08-07T09:47:17.563Z</time>
      </trkpt>
      <trkpt lat="48.802645" lon="11.217271">
        <ele>471.806685</ele>
        <time>2021-08-07T09:47:19.553Z</time>
      </trkpt>
      <trkpt lat="48.802556" lon="11.217124">
        <ele>471.379345</ele>
        <time>2021-08-07T09:47:21.563Z</time>
      </trkpt>
      <trkpt lat="48.802466" lon="11.216982">
        <ele>470.881139</ele>
        <time>2021-08-07T09:47:23.557Z</time>
      </trkpt>
      <trkpt lat="48.802361" lon="11.216857">
        <ele>470.368145</ele>
        <time>2021-08-07T09:47:25.548Z</time>
      </trkpt>
      <trkpt lat="48.802265" lon="11.216719">
        <ele>469.859865</ele>
        <time>2021-08-07T09:47:27.557Z</time>
      </trkpt>
      <trkpt lat="48.802155" lon="11.216585">
        <ele>469.317646</ele>
        <time>2021-08-07T09:47:29.557Z</time>
      </trkpt>
      <trkpt lat="48.802053" lon="11.216443">
        <ele>468.785583</ele>
        <time>2021-08-07T09:47:31.554Z</time>
      </trkpt>
      <trkpt lat="48.801968" lon="11.216332">
        <ele>468.354529</ele>
        <time>2021-08-07T09:47:33.549Z</time>
      </trkpt>
      <trkpt lat="48.801872" lon="11.216233">
        <ele>467.908348</ele>
        <time>2021-08-07T09:47:35.581Z</time>
      </trkpt>
      <trkpt lat="48.801773" lon="11.216140">
        <ele>467.460758</ele>
        <time>2021-08-07T09:47:37.558Z</time>
      </trkpt>
      <trkpt lat="48.801677" lon="11.216077">
        <ele>467.058666</ele>
        <time>2021-08-07T09:47:39.521Z</time>
      </trkpt>
      <trkpt lat="48.801583" lon="11.216045">
        <ele>466.688294</ele>
        <time>2021-08-07T09:47:41.553Z</time>
      </trkpt>
      <trkpt lat="48.801459" lon="11.216071">
        <ele>466.207031</ele>
        <time>2021-08-07T09:47:44.558Z</time>
      </trkpt>
      <trkpt lat="48.801362" lon="11.216094">
        <ele>465.829577</ele>
        <time>2021-08-07T09:47:47.563Z</time>
      </trkpt>
      <trkpt lat="48.801332" lon="11.215959">
        <ele>465.468775</ele>
        <time>2021-08-07T09:47:50.533Z</time>
      </trkpt>
      <trkpt lat="48.801356" lon="11.215773">
        <ele>464.988801</ele>
        <time>2021-08-07T09:47:53.576Z</time>
      </trkpt>
      <trkpt lat="48.801374" lon="11.215573">
        <ele>464.477621</ele>
        <time>2021-08-07T09:47:56.548Z</time>
      </trkpt>
      <trkpt lat="48.801382" lon="11.215434">
        <ele>464.563887</ele>
        <time>2021-08-07T09:47:58.554Z</time>
      </trkpt>
      <trkpt lat="48.801404" lon="11.215226">
        <ele>464.729687</ele>
        <time>2021-08-07T09:48:01.526Z</time>
      </trkpt>
      <trkpt lat="48.801429" lon="11.215036">
        <ele>464.882178</ele>
        <time>2021-08-07T09:48:04.559Z</time>
      </trkpt>
      <trkpt lat="48.801459" lon="11.214859">
        <ele>465.026022</ele>
        <time>2021-08-07T09:48:07.574Z</time>
      </trkpt>
      <trkpt lat="48.801481" lon="11.214724">
        <ele>465.135475</ele>
        <time>2021-08-07T09:48:09.551Z</time>
      </trkpt>
      <trkpt lat="48.801492" lon="11.214585">
        <ele>465.245659</ele>
        <time>2021-08-07T09:48:11.553Z</time>
      </trkpt>
      <trkpt lat="48.801525" lon="11.214396">
        <ele>465.399546</ele>
        <time>2021-08-07T09:48:14.554Z</time>
      </trkpt>
      <trkpt lat="48.801556" lon="11.214203">
        <ele>465.555895</ele>
        <time>2021-08-07T09:48:17.572Z</time>
      </trkpt>
      <trkpt lat="48.801584" lon="11.214009">
        <ele>465.712202</ele>
        <time>2021-08-07T09:48:20.549Z</time>
      </trkpt>
      <trkpt lat="48.801616" lon="11.213811">
        <ele>465.872657</ele>
        <time>2021-08-07T09:48:23.570Z</time>
      </trkpt>
      <trkpt lat="48.801631" lon="11.213669">
        <ele>465.985843</ele>
        <time>2021-08-07T09:48:25.551Z</time>
      </trkpt>
      <trkpt lat="48.801654" lon="11.213472">
        <ele>466.143305</ele>
        <time>2021-08-07T09:48:28.558Z</time>
      </trkpt>
      <trkpt lat="48.801674" lon="11.213339">
        <ele>466.250674</ele>
        <time>2021-08-07T09:48:30.550Z</time>
      </trkpt>
      <trkpt lat="48.801695" lon="11.213202">
        <ele>466.361378</ele>
        <time>2021-08-07T09:48:32.549Z</time>
      </trkpt>
      <trkpt lat="48.801712" lon="11.213063">
        <ele>466.472645</ele>
        <time>2021-08-07T09:48:34.538Z</time>
      </trkpt>
      <trkpt lat="48.801740" lon="11.212872">
        <ele>466.600801</ele>
        <time>2021-08-07T09:48:37.558Z</time>
      </trkpt>
      <trkpt lat="48.801770" lon="11.212735">
        <ele>466.549642</ele>
        <time>2021-08-07T09:48:39.558Z</time>
      </trkpt>
      <trkpt lat="48.801805" lon="11.212538">
        <ele>466.477340</ele>
        <time>2021-08-07T09:48:42.553Z</time>
      </trkpt>
      <trkpt lat="48.801838" lon="11.212405">
        <ele>466.426979</ele>
        <time>2021-08-07T09:48:44.575Z</time>
      </trkpt>
      <trkpt lat="48.801881" lon="11.212220">
        <ele>466.357462</ele>
        <time>2021-08-07T09:48:47.551Z</time>
      </trkpt>
      <trkpt lat="48.801917" lon="11.212079">
        <ele>466.303876</ele>
        <time>2021-08-07T09:48:49.548Z</time>
      </trkpt>
      <trkpt lat="48.801957" lon="11.211939">
        <ele>466.249801</ele>
        <time>2021-08-07T09:48:51.554Z</time>
      </trkpt>
      <trkpt lat="48.802016" lon="11.211804">
        <ele>466.192391</ele>
        <time>2021-08-07T09:48:53.558Z</time>
      </trkpt>
      <trkpt lat="48.802061" lon="11.211653">
        <ele>466.133663</ele>
        <time>2021-08-07T09:48:56.560Z</time>
      </trkpt>
      <trkpt lat="48.802112" lon="11.211488">
        <ele>466.069078</ele>
        <time>2021-08-07T09:48:59.551Z</time>
      </trkpt>
      <trkpt lat="48.802170" lon="11.211314">
        <ele>465.999975</ele>
        <time>2021-08-07T09:49:02.565Z</time>
      </trkpt>
      <trkpt lat="48.802207" lon="11.211180">
        <ele>465.948489</ele>
        <time>2021-08-07T09:49:04.558Z</time>
      </trkpt>
      <trkpt lat="48.802249" lon="11.211029">
        <ele>465.890407</ele>
        <time>2021-08-07T09:49:06.565Z</time>
      </trkpt>
      <trkpt lat="48.802284" lon="11.210898">
        <ele>465.840314</ele>
        <time>2021-08-07T09:49:08.561Z</time>
      </trkpt>
      <trkpt lat="48.802323" lon="11.210744">
        <ele>465.781850</ele>
        <time>2021-08-07T09:49:10.563Z</time>
      </trkpt>
      <trkpt lat="48.802375" lon="11.210568">
        <ele>465.713498</ele>
        <time>2021-08-07T09:49:12.569Z</time>
      </trkpt>
      <trkpt lat="48.802424" lon="11.210420">
        <ele>465.654802</ele>
        <time>2021-08-07T09:49:14.570Z</time>
      </trkpt>
      <trkpt lat="48.802468" lon="11.210264">
        <ele>465.538156</ele>
        <time>2021-08-07T09:49:16.562Z</time>
      </trkpt>
      <trkpt lat="48.802511" lon="11.210085">
        <ele>465.388620</ele>
        <time>2021-08-07T09:49:18.556Z</time>
      </trkpt>
      <trkpt lat="48.802553" lon="11.209913">
        <ele>465.244651</ele>
        <time>2021-08-07T09:49:20.549Z</time>
      </trkpt>
      <trkpt lat="48.802603" lon="11.209752">
        <ele>465.104951</ele>
        <time>2021-08-07T09:49:22.545Z</time>
      </trkpt>
      <trkpt lat="48.802659" lon="11.209607">
        <ele>464.973031</ele>
        <time>2021-08-07T09:49:24.551Z</time>
      </trkpt>
      <trkpt lat="48.802712" lon="11.209474">
        <ele>464.851031</ele>
        <time>2021-08-07T09:49:26.550Z</time>
      </trkpt>
      <trkpt lat="48.802771" lon="11.209352">
        <ele>464.732244</ele>
        <time>2021-08-07T09:49:28.559Z</time>
      </trkpt>
      <trkpt lat="48.802839" lon="11.209201">
        <ele>464.588684</ele>
        <time>2021-08-07T09:49:31.562Z</time>
      </trkpt>
      <trkpt lat="48.802878" lon="11.209073">
        <ele>464.477998</ele>
        <time>2021-08-07T09:49:34.572Z</time>
      </trkpt>
      <trkpt lat="48.802798" lon="11.208951">
        <ele>464.342888</ele>
        <time>2021-08-07T09:49:38.562Z</time>
      </trkpt>
      <trkpt lat="48.802669" lon="11.208913">
        <ele>464.186310</ele>
        <time>2021-08-07T09:49:41.565Z</time>
      </trkpt>
      <trkpt lat="48.802563" lon="11.208871">
        <ele>464.055774</ele>
        <time>2021-08-07T09:49:43.558Z</time>
      </trkpt>
      <trkpt lat="48.802442" lon="11.208830">
        <ele>463.908048</ele>
        <time>2021-08-07T09:49:46.565Z</time>
      </trkpt>
      <trkpt lat="48.802339" lon="11.208759">
        <ele>463.773259</ele>
        <time>2021-08-07T09:49:49.583Z</time>
      </trkpt>
      <trkpt lat="48.802239" lon="11.208714">
        <ele>463.648979</ele>
        <time>2021-08-07T09:49:52.561Z</time>
      </trkpt>
      <trkpt lat="48.802140" lon="11.208669">
        <ele>463.525840</ele>
        <time>2021-08-07T09:49:55.561Z</time>
      </trkpt>
      <trkpt lat="48.802036" lon="11.208614">
        <ele>463.660141</ele>
        <time>2021-08-07T09:49:58.560Z</time>
      </trkpt>
      <trkpt lat="48.801944" lon="11.208575">
        <ele>463.838674</ele>
        <time>2021-08-07T09:50:01.556Z</time>
      </trkpt>
      <trkpt lat="48.801850" lon="11.208537">
        <ele>464.020490</ele>
        <time>2021-08-07T09:50:04.547Z</time>
      </trkpt>
      <trkpt lat="48.801741" lon="11.208499">
        <ele>464.229523</ele>
        <time>2021-08-07T09:50:07.553Z</time>
      </trkpt>
      <trkpt lat="48.801625" lon="11.208453">
        <ele>464.453611</ele>
        <time>2021-08-07T09:50:10.563Z</time>
      </trkpt>
      <trkpt lat="48.801520" lon="11.208405">
        <ele>464.658569</ele>
        <time>2021-08-07T09:50:13.545Z</time>
      </trkpt>
      <trkpt lat="48.801409" lon="11.208352">
        <ele>464.876056</ele>
        <time>2021-08-07T09:50:16.554Z</time>
      </trkpt>
      <trkpt lat="48.801303" lon="11.208301">
        <ele>465.083891</ele>
        <time>2021-08-07T09:50:19.566Z</time>
      </trkpt>
      <trkpt lat="48.801194" lon="11.208252">
        <ele>465.296365</ele>
        <time>2021-08-07T09:50:22.550Z</time>
      </trkpt>
      <trkpt lat="48.801088" lon="11.208204">
        <ele>465.503114</ele>
        <time>2021-08-07T09:50:25.558Z</time>
      </trkpt>
      <trkpt lat="48.800984" lon="11.208168">
        <ele>465.702487</ele>
        <time>2021-08-07T09:50:28.560Z</time>
      </trkpt>
      <trkpt lat="48.800873" lon="11.208139">
        <ele>465.913006</ele>
        <time>2021-08-07T09:50:31.550Z</time>
      </trkpt>
      <trkpt lat="48.800778" lon="11.208120">
        <ele>466.092103</ele>
        <time>2021-08-07T09:50:34.548Z</time>
      </trkpt>
      <trkpt lat="48.800685" lon="11.208077">
        <ele>466.273811</ele>
        <time>2021-08-07T09:50:37.558Z</time>
      </trkpt>
      <trkpt lat="48.800585" lon="11.208029">
        <ele>466.469840</ele>
        <time>2021-08-07T09:50:41.559Z</time>
      </trkpt>
      <trkpt lat="48.800561" lon="11.207887">
        <ele>466.650324</ele>
        <time>2021-08-07T09:50:48.549Z</time>
      </trkpt>
      <trkpt lat="48.800610" lon="11.207749">
        <ele>466.843334</ele>
        <time>2021-08-07T09:50:53.568Z</time>
      </trkpt>
      <trkpt lat="48.800459" lon="11.208091">
        <ele>466.353190</ele>
        <time>2021-08-07T09:51:24.560Z</time>
      </trkpt>
      <trkpt lat="48.800383" lon="11.208191">
        <ele>466.158998</ele>
        <time>2021-08-07T09:51:29.540Z</time>
      </trkpt>
      <trkpt lat="48.800212" lon="11.208419">
        <ele>465.719558</ele>
        <time>2021-08-07T09:51:32.570Z</time>
      </trkpt>
      <trkpt lat="48.800146" lon="11.208515">
        <ele>465.543069</ele>
        <time>2021-08-07T09:51:34.544Z</time>
      </trkpt>
      <trkpt lat="48.800083" lon="11.208624">
        <ele>465.358634</ele>
        <time>2021-08-07T09:51:36.561Z</time>
      </trkpt>
      <trkpt lat="48.800015" lon="11.208754">
        <ele>465.147501</ele>
        <time>2021-08-07T09:51:38.562Z</time>
      </trkpt>
      <trkpt lat="48.799954" lon="11.208862">
        <ele>464.966557</ele>
        <time>2021-08-07T09:51:40.559Z</time>
      </trkpt>
      <trkpt lat="48.799884" lon="11.208987">
        <ele>464.757886</ele>
        <time>2021-08-07T09:51:42.552Z</time>
      </trkpt>
      <trkpt lat="48.799817" lon="11.209109">
        <ele>464.555864</ele>
        <time>2021-08-07T09:51:44.551Z</time>
      </trkpt>
      <trkpt lat="48.799761" lon="11.209226">
        <ele>464.371919</ele>
        <time>2021-08-07T09:51:46.562Z</time>
      </trkpt>
      <trkpt lat="48.799689" lon="11.209364">
        <ele>464.148014</ele>
        <time>2021-08-07T09:51:49.555Z</time>
      </trkpt>
      <trkpt lat="48.799608" lon="11.209531">
        <ele>463.884243</ele>
        <time>2021-08-07T09:51:52.562Z</time>
      </trkpt>
      <trkpt lat="48.799555" lon="11.209643">
        <ele>463.708845</ele>
        <time>2021-08-07T09:51:54.555Z</time>
      </trkpt>
      <trkpt lat="48.799486" lon="11.209794">
        <ele>463.475106</ele>
        <time>2021-08-07T09:51:57.546Z</time>
      </trkpt>
      <trkpt lat="48.799402" lon="11.209954">
        <ele>462.990398</ele>
        <time>2021-08-07T09:52:00.549Z</time>
      </trkpt>
      <trkpt lat="48.799345" lon="11.210084">
        <ele>462.532501</ele>
        <time>2021-08-07T09:52:02.553Z</time>
      </trkpt>
      <trkpt lat="48.799280" lon="11.210217">
        <ele>462.046917</ele>
        <time>2021-08-07T09:52:04.558Z</time>
      </trkpt>
      <trkpt lat="48.799249" lon="11.210351">
        <ele>461.630488</ele>
        <time>2021-08-07T09:52:06.542Z</time>
      </trkpt>
      <trkpt lat="48.799240" lon="11.210526">
        <ele>461.115809</ele>
        <time>2021-08-07T09:52:09.544Z</time>
      </trkpt>
      <trkpt lat="48.799238" lon="11.210701">
        <ele>460.602614</ele>
        <time>2021-08-07T09:52:12.548Z</time>
      </trkpt>
      <trkpt lat="48.799252" lon="11.211049">
        <ele>459.580343</ele>
        <time>2021-08-07T09:52:21.547Z</time>
      </trkpt>
      <trkpt lat="48.799286" lon="11.211310">
        <ele>458.800243</ele>
        <time>2021-08-07T09:52:24.556Z</time>
      </trkpt>
      <trkpt lat="48.799312" lon="11.211444">
        <ele>458.390651</ele>
        <time>2021-08-07T09:52:26.554Z</time>
      </trkpt>
      <trkpt lat="48.799330" lon="11.211591">
        <ele>457.952249</ele>
        <time>2021-08-07T09:52:28.550Z</time>
      </trkpt>
      <trkpt lat="48.799343" lon="11.211789">
        <ele>457.368817</ele>
        <time>2021-08-07T09:52:31.556Z</time>
      </trkpt>
      <trkpt lat="48.799347" lon="11.211975">
        <ele>456.823157</ele>
        <time>2021-08-07T09:52:34.554Z</time>
      </trkpt>
      <trkpt lat="48.799341" lon="11.212123">
        <ele>456.388386</ele>
        <time>2021-08-07T09:52:36.548Z</time>
      </trkpt>
      <trkpt lat="48.799331" lon="11.212264">
        <ele>455.972571</ele>
        <time>2021-08-07T09:52:38.549Z</time>
      </trkpt>
      <trkpt lat="48.799291" lon="11.212450">
        <ele>455.398872</ele>
        <time>2021-08-07T09:52:41.558Z</time>
      </trkpt>
      <trkpt lat="48.799249" lon="11.212625">
        <ele>455.250866</ele>
        <time>2021-08-07T09:52:44.546Z</time>
      </trkpt>
      <trkpt lat="48.799221" lon="11.212759">
        <ele>455.149636</ele>
        <time>2021-08-07T09:52:47.557Z</time>
      </trkpt>
      <trkpt lat="48.799136" lon="11.212838">
        <ele>455.040685</ele>
        <time>2021-08-07T09:52:50.565Z</time>
      </trkpt>
      <trkpt lat="48.799043" lon="11.212824">
        <ele>454.938520</ele>
        <time>2021-08-07T09:52:52.536Z</time>
      </trkpt>
      <trkpt lat="48.798929" lon="11.212786">
        <ele>454.810928</ele>
        <time>2021-08-07T09:52:55.569Z</time>
      </trkpt>
      <trkpt lat="48.798830" lon="11.212781">
        <ele>454.702643</ele>
        <time>2021-08-07T09:52:59.559Z</time>
      </trkpt>
      <trkpt lat="48.798779" lon="11.212983">
        <ele>454.546866</ele>
        <time>2021-08-07T09:53:02.509Z</time>
      </trkpt>
      <trkpt lat="48.798780" lon="11.213177">
        <ele>454.407165</ele>
        <time>2021-08-07T09:53:05.558Z</time>
      </trkpt>
      <trkpt lat="48.798777" lon="11.213355">
        <ele>454.278947</ele>
        <time>2021-08-07T09:53:08.555Z</time>
      </trkpt>
      <trkpt lat="48.798761" lon="11.213518">
        <ele>454.160277</ele>
        <time>2021-08-07T09:53:11.557Z</time>
      </trkpt>
      <trkpt lat="48.798744" lon="11.213660">
        <ele>454.056349</ele>
        <time>2021-08-07T09:53:14.558Z</time>
      </trkpt>
      <trkpt lat="48.798706" lon="11.214121">
        <ele>453.721799</ele>
        <time>2021-08-07T09:53:26.550Z</time>
      </trkpt>
      <trkpt lat="48.798709" lon="11.214316">
        <ele>453.581343</ele>
        <time>2021-08-07T09:53:29.535Z</time>
      </trkpt>
      <trkpt lat="48.798706" lon="11.214503">
        <ele>453.446646</ele>
        <time>2021-08-07T09:53:32.560Z</time>
      </trkpt>
      <trkpt lat="48.798689" lon="11.214678">
        <ele>453.401663</ele>
        <time>2021-08-07T09:53:35.547Z</time>
      </trkpt>
      <trkpt lat="48.798678" lon="11.214869">
        <ele>453.383417</ele>
        <time>2021-08-07T09:53:38.554Z</time>
      </trkpt>
      <trkpt lat="48.798682" lon="11.215064">
        <ele>453.364852</ele>
        <time>2021-08-07T09:53:41.561Z</time>
      </trkpt>
      <trkpt lat="48.798688" lon="11.215202">
        <ele>453.351691</ele>
        <time>2021-08-07T09:53:43.563Z</time>
      </trkpt>
      <trkpt lat="48.798711" lon="11.215386">
        <ele>453.333868</ele>
        <time>2021-08-07T09:53:46.574Z</time>
      </trkpt>
      <trkpt lat="48.798741" lon="11.215582">
        <ele>453.314720</ele>
        <time>2021-08-07T09:53:49.554Z</time>
      </trkpt>
      <trkpt lat="48.798772" lon="11.215756">
        <ele>453.297566</ele>
        <time>2021-08-07T09:53:52.579Z</time>
      </trkpt>
      <trkpt lat="48.798789" lon="11.215927">
        <ele>453.281109</ele>
        <time>2021-08-07T09:53:55.549Z</time>
      </trkpt>
      <trkpt lat="48.798822" lon="11.216076">
        <ele>453.266150</ele>
        <time>2021-08-07T09:53:58.555Z</time>
      </trkpt>
      <trkpt lat="48.798865" lon="11.216256">
        <ele>453.247929</ele>
        <time>2021-08-07T09:54:01.548Z</time>
      </trkpt>
      <trkpt lat="48.798890" lon="11.216394">
        <ele>453.234309</ele>
        <time>2021-08-07T09:54:03.559Z</time>
      </trkpt>
      <trkpt lat="48.798922" lon="11.216590">
        <ele>453.215093</ele>
        <time>2021-08-07T09:54:06.561Z</time>
      </trkpt>
      <trkpt lat="48.798967" lon="11.216769">
        <ele>453.196861</ele>
        <time>2021-08-07T09:54:09.522Z</time>
      </trkpt>
      <trkpt lat="48.798996" lon="11.216974">
        <ele>453.176908</ele>
        <time>2021-08-07T09:54:12.559Z</time>
      </trkpt>
      <trkpt lat="48.799026" lon="11.217142">
        <ele>453.160344</ele>
        <time>2021-08-07T09:54:14.561Z</time>
      </trkpt>
      <trkpt lat="48.799046" lon="11.217317">
        <ele>453.204993</ele>
        <time>2021-08-07T09:54:16.560Z</time>
      </trkpt>
      <trkpt lat="48.799040" lon="11.217462">
        <ele>453.269093</ele>
        <time>2021-08-07T09:54:18.547Z</time>
      </trkpt>
      <trkpt lat="48.799051" lon="11.217652">
        <ele>453.353242</ele>
        <time>2021-08-07T09:54:21.550Z</time>
      </trkpt>
      <trkpt lat="48.799078" lon="11.217831">
        <ele>453.434260</ele>
        <time>2021-08-07T09:54:24.558Z</time>
      </trkpt>
      <trkpt lat="48.799102" lon="11.218016">
        <ele>453.517448</ele>
        <time>2021-08-07T09:54:27.550Z</time>
      </trkpt>
      <trkpt lat="48.799115" lon="11.218165">
        <ele>453.583760</ele>
        <time>2021-08-07T09:54:30.570Z</time>
      </trkpt>
      <trkpt lat="48.799120" lon="11.218335">
        <ele>453.658837</ele>
        <time>2021-08-07T09:54:33.571Z</time>
      </trkpt>
      <trkpt lat="48.799123" lon="11.218481">
        <ele>453.723283</ele>
        <time>2021-08-07T09:54:35.552Z</time>
      </trkpt>
      <trkpt lat="48.799133" lon="11.218663">
        <ele>453.803859</ele>
        <time>2021-08-07T09:54:38.551Z</time>
      </trkpt>
      <trkpt lat="48.799166" lon="11.218853">
        <ele>453.890550</ele>
        <time>2021-08-07T09:54:41.548Z</time>
      </trkpt>
      <trkpt lat="48.799234" lon="11.218968">
        <ele>453.958731</ele>
        <time>2021-08-07T09:54:44.545Z</time>
      </trkpt>
      <trkpt lat="48.799348" lon="11.219033">
        <ele>454.040295</ele>
        <time>2021-08-07T09:54:47.545Z</time>
      </trkpt>
      <trkpt lat="48.799445" lon="11.219063">
        <ele>454.106599</ele>
        <time>2021-08-07T09:54:49.552Z</time>
      </trkpt>
      <trkpt lat="48.799569" lon="11.219090">
        <ele>454.190503</ele>
        <time>2021-08-07T09:54:52.561Z</time>
      </trkpt>
      <trkpt lat="48.799695" lon="11.219104">
        <ele>454.275123</ele>
        <time>2021-08-07T09:54:55.541Z</time>
      </trkpt>
      <trkpt lat="48.799814" lon="11.219095">
        <ele>454.354927</ele>
        <time>2021-08-07T09:54:58.562Z</time>
      </trkpt>
      <trkpt lat="48.799907" lon="11.219099">
        <ele>454.638310</ele>
        <time>2021-08-07T09:55:00.557Z</time>
      </trkpt>
      <trkpt lat="48.800028" lon="11.219069">
        <ele>455.032537</ele>
        <time>2021-08-07T09:55:02.556Z</time>
      </trkpt>
      <trkpt lat="48.800128" lon="11.219026">
        <ele>455.366733</ele>
        <time>2021-08-07T09:55:04.545Z</time>
      </trkpt>
      <trkpt lat="48.800215" lon="11.218963">
        <ele>455.676672</ele>
        <time>2021-08-07T09:55:06.567Z</time>
      </trkpt>
      <trkpt lat="48.800323" lon="11.218875">
        <ele>456.070799</ele>
        <time>2021-08-07T09:55:09.558Z</time>
      </trkpt>
      <trkpt lat="48.800425" lon="11.218835">
        <ele>456.409542</ele>
        <time>2021-08-07T09:55:12.556Z</time>
      </trkpt>
      <trkpt lat="48.800518" lon="11.218807">
        <ele>456.714405</ele>
        <time>2021-08-07T09:55:15.553Z</time>
      </trkpt>
      <trkpt lat="48.800628" lon="11.218811">
        <ele>457.068208</ele>
        <time>2021-08-07T09:55:19.525Z</time>
      </trkpt>
      <trkpt lat="48.800648" lon="11.218978">
        <ele>457.427708</ele>
        <time>2021-08-07T09:55:23.573Z</time>
      </trkpt>
      <trkpt lat="48.800625" lon="11.219168">
        <ele>457.836862</ele>
        <time>2021-08-07T09:55:26.550Z</time>
      </trkpt>
      <trkpt lat="48.800665" lon="11.219313">
        <ele>458.169813</ele>
        <time>2021-08-07T09:55:31.540Z</time>
      </trkpt>
      <trkpt lat="48.800669" lon="11.219467">
        <ele>458.496234</ele>
        <time>2021-08-07T09:55:34.549Z</time>
      </trkpt>
      <trkpt lat="48.800626" lon="11.219597">
        <ele>458.804337</ele>
        <time>2021-08-07T09:55:37.547Z</time>
      </trkpt>
      <trkpt lat="48.800550" lon="11.219739">
        <ele>459.191856</ele>
        <time>2021-08-07T09:55:40.558Z</time>
      </trkpt>
      <trkpt lat="48.800490" lon="11.219877">
        <ele>459.542070</ele>
        <time>2021-08-07T09:55:43.549Z</time>
      </trkpt>
      <trkpt lat="48.800493" lon="11.220056">
        <ele>459.921310</ele>
        <time>2021-08-07T09:55:48.555Z</time>
      </trkpt>
      <trkpt lat="48.800521" lon="11.220207">
        <ele>460.206737</ele>
        <time>2021-08-07T09:55:50.568Z</time>
      </trkpt>
      <trkpt lat="48.800553" lon="11.220344">
        <ele>460.384735</ele>
        <time>2021-08-07T09:55:52.567Z</time>
      </trkpt>
      <trkpt lat="48.800541" lon="11.220508">
        <ele>460.586796</ele>
        <time>2021-08-07T09:55:55.562Z</time>
      </trkpt>
      <trkpt lat="48.800522" lon="11.220647">
        <ele>460.760635</ele>
        <time>2021-08-07T09:55:58.570Z</time>
      </trkpt>
      <trkpt lat="48.800506" lon="11.220785">
        <ele>460.932220</ele>
        <time>2021-08-07T09:56:00.550Z</time>
      </trkpt>
      <trkpt lat="48.800463" lon="11.220936">
        <ele>461.133667</ele>
        <time>2021-08-07T09:56:03.538Z</time>
      </trkpt>
      <trkpt lat="48.800417" lon="11.221091">
        <ele>461.341848</ele>
        <time>2021-08-07T09:56:06.559Z</time>
      </trkpt>
      <trkpt lat="48.800393" lon="11.221253">
        <ele>461.545181</ele>
        <time>2021-08-07T09:56:09.558Z</time>
      </trkpt>
      <trkpt lat="48.800362" lon="11.221398">
        <ele>461.731859</ele>
        <time>2021-08-07T09:56:11.565Z</time>
      </trkpt>
      <trkpt lat="48.800323" lon="11.221572">
        <ele>461.956929</ele>
        <time>2021-08-07T09:56:14.552Z</time>
      </trkpt>
      <trkpt lat="48.800292" lon="11.221716">
        <ele>462.142444</ele>
        <time>2021-08-07T09:56:16.532Z</time>
      </trkpt>
      <trkpt lat="48.800250" lon="11.221907">
        <ele>462.389023</ele>
        <time>2021-08-07T09:56:19.539Z</time>
      </trkpt>
      <trkpt lat="48.800215" lon="11.222090">
        <ele>462.622372</ele>
        <time>2021-08-07T09:56:22.531Z</time>
      </trkpt>
      <trkpt lat="48.800192" lon="11.222278">
        <ele>462.856525</ele>
        <time>2021-08-07T09:56:25.558Z</time>
      </trkpt>
      <trkpt lat="48.800162" lon="11.222455">
        <ele>463.080332</ele>
        <time>2021-08-07T09:56:28.545Z</time>
      </trkpt>
      <trkpt lat="48.800135" lon="11.222651">
        <ele>463.325538</ele>
        <time>2021-08-07T09:56:31.563Z</time>
      </trkpt>
      <trkpt lat="48.800126" lon="11.222790">
        <ele>463.493835</ele>
        <time>2021-08-07T09:56:33.552Z</time>
      </trkpt>
      <trkpt lat="48.800112" lon="11.222982">
        <ele>463.666788</ele>
        <time>2021-08-07T09:56:36.558Z</time>
      </trkpt>
      <trkpt lat="48.800101" lon="11.223123">
        <ele>463.793911</ele>
        <time>2021-08-07T09:56:38.548Z</time>
      </trkpt>
      <trkpt lat="48.800090" lon="11.223318">
        <ele>463.969138</ele>
        <time>2021-08-07T09:56:41.563Z</time>
      </trkpt>
      <trkpt lat="48.800081" lon="11.223460">
        <ele>464.096861</ele>
        <time>2021-08-07T09:56:43.570Z</time>
      </trkpt>
      <trkpt lat="48.800074" lon="11.223657">
        <ele>464.273497</ele>
        <time>2021-08-07T09:56:46.565Z</time>
      </trkpt>
      <trkpt lat="48.800072" lon="11.223809">
        <ele>464.409613</ele>
        <time>2021-08-07T09:56:48.560Z</time>
      </trkpt>
      <trkpt lat="48.800073" lon="11.223953">
        <ele>464.538547</ele>
        <time>2021-08-07T09:56:50.568Z</time>
      </trkpt>
      <trkpt lat="48.800073" lon="11.224143">
        <ele>464.708659</ele>
        <time>2021-08-07T09:56:53.546Z</time>
      </trkpt>
      <trkpt lat="48.800058" lon="11.224343">
        <ele>464.888881</ele>
        <time>2021-08-07T09:56:56.550Z</time>
      </trkpt>
      <trkpt lat="48.800013" lon="11.224520">
        <ele>465.058748</ele>
        <time>2021-08-07T09:56:59.550Z</time>
      </trkpt>
      <trkpt lat="48.799955" lon="11.224688">
        <ele>465.228571</ele>
        <time>2021-08-07T09:57:02.548Z</time>
      </trkpt>
      <trkpt lat="48.799909" lon="11.224813">
        <ele>465.356769</ele>
        <time>2021-08-07T09:57:05.549Z</time>
      </trkpt>
      <trkpt lat="48.799986" lon="11.224889">
        <ele>465.481606</ele>
        <time>2021-08-07T09:57:10.547Z</time>
      </trkpt>
      <trkpt lat="48.800085" lon="11.224900">
        <ele>465.616532</ele>
        <time>2021-08-07T09:57:14.532Z</time>
      </trkpt>
      <trkpt lat="48.800203" lon="11.224882">
        <ele>465.777732</ele>
        <time>2021-08-07T09:57:17.563Z</time>
      </trkpt>
      <trkpt lat="48.800532" lon="11.225025">
        <ele>466.703324</ele>
        <time>2021-08-07T09:57:31.570Z</time>
      </trkpt>
      <trkpt lat="48.800637" lon="11.225075">
        <ele>467.073862</ele>
        <time>2021-08-07T09:57:32.548Z</time>
      </trkpt>
      <trkpt lat="48.800735" lon="11.225105">
        <ele>467.410488</ele>
        <time>2021-08-07T09:57:35.550Z</time>
      </trkpt>
      <trkpt lat="48.800847" lon="11.225135">
        <ele>467.793437</ele>
        <time>2021-08-07T09:57:39.571Z</time>
      </trkpt>
      <trkpt lat="48.800963" lon="11.225158">
        <ele>468.187348</ele>
        <time>2021-08-07T09:57:42.554Z</time>
      </trkpt>
      <trkpt lat="48.801068" lon="11.225162">
        <ele>468.541013</ele>
        <time>2021-08-07T09:57:45.562Z</time>
      </trkpt>
      <trkpt lat="48.801202" lon="11.225174">
        <ele>468.993001</ele>
        <time>2021-08-07T09:57:48.589Z</time>
      </trkpt>
      <trkpt lat="48.801332" lon="11.225199">
        <ele>469.434232</ele>
        <time>2021-08-07T09:57:51.544Z</time>
      </trkpt>
      <trkpt lat="48.801430" lon="11.225235">
        <ele>469.773739</ele>
        <time>2021-08-07T09:57:54.556Z</time>
      </trkpt>
      <trkpt lat="48.801558" lon="11.225275">
        <ele>470.213774</ele>
        <time>2021-08-07T09:57:58.557Z</time>
      </trkpt>
      <trkpt lat="48.801666" lon="11.225256">
        <ele>470.579864</ele>
        <time>2021-08-07T09:58:01.564Z</time>
      </trkpt>
      <trkpt lat="48.801783" lon="11.225270">
        <ele>470.975046</ele>
        <time>2021-08-07T09:58:05.545Z</time>
      </trkpt>
      <trkpt lat="48.801891" lon="11.225312">
        <ele>471.350443</ele>
        <time>2021-08-07T09:58:08.563Z</time>
      </trkpt>
      <trkpt lat="48.801980" lon="11.225333">
        <ele>471.653720</ele>
        <time>2021-08-07T09:58:11.562Z</time>
      </trkpt>
      <trkpt lat="48.802071" lon="11.225355">
        <ele>471.963994</ele>
        <time>2021-08-07T09:58:14.561Z</time>
      </trkpt>
      <trkpt lat="48.802163" lon="11.225367">
        <ele>471.987574</ele>
        <time>2021-08-07T09:58:17.553Z</time>
      </trkpt>
      <trkpt lat="48.802262" lon="11.225375">
        <ele>471.987574</ele>
        <time>2021-08-07T09:58:20.562Z</time>
      </trkpt>
      <trkpt lat="48.802366" lon="11.225365">
        <ele>471.987574</ele>
        <time>2021-08-07T09:58:23.555Z</time>
      </trkpt>
      <trkpt lat="48.802468" lon="11.225388">
        <ele>471.987574</ele>
        <time>2021-08-07T09:58:26.549Z</time>
      </trkpt>
      <trkpt lat="48.802574" lon="11.225397">
        <ele>471.987574</ele>
        <time>2021-08-07T09:58:29.550Z</time>
      </trkpt>
      <trkpt lat="48.802667" lon="11.225404">
        <ele>471.987574</ele>
        <time>2021-08-07T09:58:32.563Z</time>
      </trkpt>
      <trkpt lat="48.802774" lon="11.225400">
        <ele>471.987574</ele>
        <time>2021-08-07T09:58:35.553Z</time>
      </trkpt>
      <trkpt lat="48.802889" lon="11.225408">
        <ele>471.987574</ele>
        <time>2021-08-07T09:58:38.564Z</time>
      </trkpt>
      <trkpt lat="48.802983" lon="11.225434">
        <ele>471.987574</ele>
        <time>2021-08-07T09:58:41.565Z</time>
      </trkpt>
      <trkpt lat="48.803001" lon="11.225593">
        <ele>471.987574</ele>
        <time>2021-08-07T09:58:45.559Z</time>
      </trkpt>
      <trkpt lat="48.802985" lon="11.225768">
        <ele>471.987574</ele>
        <time>2021-08-07T09:58:48.560Z</time>
      </trkpt>
      <trkpt lat="48.802977" lon="11.225927">
        <ele>471.987574</ele>
        <time>2021-08-07T09:58:51.564Z</time>
      </trkpt>
      <trkpt lat="48.802959" lon="11.226103">
        <ele>471.987574</ele>
        <time>2021-08-07T09:58:54.566Z</time>
      </trkpt>
      <trkpt lat="48.802935" lon="11.226468">
        <ele>471.987574</ele>
        <time>2021-08-07T09:59:01.564Z</time>
      </trkpt>
      <trkpt lat="48.802930" lon="11.226611">
        <ele>471.987574</ele>
        <time>2021-08-07T09:59:03.563Z</time>
      </trkpt>
      <trkpt lat="48.802904" lon="11.226778">
        <ele>471.987574</ele>
        <time>2021-08-07T09:59:06.552Z</time>
      </trkpt>
      <trkpt lat="48.802893" lon="11.226953">
        <ele>471.987574</ele>
        <time>2021-08-07T09:59:09.556Z</time>
      </trkpt>
      <trkpt lat="48.802877" lon="11.227117">
        <ele>471.987574</ele>
        <time>2021-08-07T09:59:12.570Z</time>
      </trkpt>
      <trkpt lat="48.802859" lon="11.227272">
        <ele>471.987574</ele>
        <time>2021-08-07T09:59:16.563Z</time>
      </trkpt>
      <trkpt lat="48.802850" lon="11.227440">
        <ele>471.987574</ele>
        <time>2021-08-07T09:59:19.567Z</time>
      </trkpt>
      <trkpt lat="48.802800" lon="11.227575">
        <ele>471.987574</ele>
        <time>2021-08-07T09:59:22.550Z</time>
      </trkpt>
      <trkpt lat="48.802736" lon="11.227728">
        <ele>471.987574</ele>
        <time>2021-08-07T09:59:25.535Z</time>
      </trkpt>
      <trkpt lat="48.802641" lon="11.227748">
        <ele>471.987574</ele>
        <time>2021-08-07T09:59:30.557Z</time>
      </trkpt>
      <trkpt lat="48.802603" lon="11.227618">
        <ele>471.987574</ele>
        <time>2021-08-07T09:59:36.523Z</time>
      </trkpt>
      <trkpt lat="48.802602" lon="11.227590">
        <ele>471.987574</ele>
        <time>2021-08-07T09:59:59.780Z</time>
      </trkpt>
    </trkseg>
  </trk>
</gpx>